Time;durP1;ratioP1;P1;durP2;ratioP2;P2;SDS_P1;SDS_P2;PMS_P1;PMS_P2;Temp;Humidity;BMP_temperature;BMP_pressure;BME280_temperature;BME280_humidity;BME280_pressure;Samples;Min_cycle;Max_cycle;Signal;HPM_P1;HPM_P2
2021/01/22 00:02:02;;;;;;;4.10;0.80;;;;;;;;;;5033893;28;20178;-77
2021/01/22 00:04:28;;;;;;;3.03;0.70;;;;;;;;;;5033607;28;20513;-76
2021/01/22 00:06:54;;;;;;;2.10;0.60;;;;;;;;;;5033259;28;20488;-75
2021/01/22 00:09:20;;;;;;;1.23;0.77;;;;;;;;;;5033439;28;20409;-76
2021/01/22 00:11:46;;;;;;;2.33;0.70;;;;;;;;;;5033204;28;20460;-75
2021/01/22 00:14:12;;;;;;;3.43;0.90;;;;;;;;;;5033415;28;20416;-76
2021/01/22 00:16:38;;;;;;;2.87;1.00;;;;;;;;;;5033091;28;20420;-75
2021/01/22 00:19:04;;;;;;;3.70;1.03;;;;;;;;;;5033347;28;20417;-75
2021/01/22 00:21:30;;;;;;;3.90;1.30;;;;;;;;;;5033260;28;20409;-77
2021/01/22 00:23:56;;;;;;;5.22;1.15;;;;;;;;;;5033233;28;20175;-77
2021/01/22 00:26:22;;;;;;;9.65;2.33;;;;;;;;;;5033294;28;20216;-77
2021/01/22 00:28:48;;;;;;;1.80;1.10;;;;;;;;;;5033131;28;20737;-77
2021/01/22 00:31:14;;;;;;;2.55;1.60;;;;;;;;;;5033454;28;20488;-77
2021/01/22 00:33:40;;;;;;;2.13;1.08;;;;;;;;;;5033202;28;20174;-76
2021/01/22 00:36:06;;;;;;;14.70;2.10;;;;;;;;;;5033317;28;20170;-75
2021/01/22 00:38:32;;;;;;;2.40;1.10;;;;;;;;;;5032751;28;20428;-77
2021/01/22 00:40:58;;;;;;;4.40;1.40;;;;;;;;;;5033399;28;20182;-75
2021/01/22 00:43:24;;;;;;;9.50;1.60;;;;;;;;;;5033267;28;20404;-75
2021/01/22 00:45:50;;;;;;;2.90;1.10;;;;;;;;;;5032951;28;20263;-76
2021/01/22 00:48:16;;;;;;;4.03;1.00;;;;;;;;;;5032740;28;20437;-75
2021/01/22 00:50:42;;;;;;;3.67;1.00;;;;;;;;;;5033125;28;20821;-77
2021/01/22 00:53:08;;;;;;;2.70;1.00;;;;;;;;;;5033136;28;20478;-78
2021/01/22 00:55:34;;;;;;;1.75;0.80;;;;;;;;;;5033117;28;20181;-78
2021/01/22 00:58:00;;;;;;;5.87;1.50;;;;;;;;;;5032501;28;20198;-76
2021/01/22 01:00:26;;;;;;;2.90;1.10;;;;;;;;;;5033193;28;20416;-78
2021/01/22 01:02:52;;;;;;;3.03;1.10;;;;;;;;;;5035241;28;20408;-77
2021/01/22 01:05:18;;;;;;;4.63;1.27;;;;;;;;;;5037104;28;20554;-76
2021/01/22 01:07:44;;;;;;;6.50;1.13;;;;;;;;;;5036373;28;20486;-77
2021/01/22 01:10:10;;;;;;;4.10;1.30;;;;;;;;;;5036507;28;20428;-76
2021/01/22 01:12:36;;;;;;;3.15;0.95;;;;;;;;;;5036795;28;20508;-77
2021/01/22 01:15:04;;;;;;;3.45;1.15;;;;;;;;;;5036677;28;20166;-75
2021/01/22 01:17:30;;;;;;;2.70;1.13;;;;;;;;;;5036274;28;20541;-77
2021/01/22 01:19:56;;;;;;;4.40;1.30;;;;;;;;;;5035214;28;20233;-75
2021/01/22 01:22:22;;;;;;;3.73;1.53;;;;;;;;;;5036424;28;20877;-76
2021/01/22 01:24:48;;;;;;;1.63;0.90;;;;;;;;;;5036495;28;20409;-75
2021/01/22 01:27:13;;;;;;;2.10;1.10;;;;;;;;;;5036008;28;20447;-76
2021/01/22 01:29:39;;;;;;;1.90;0.77;;;;;;;;;;5035189;28;20444;-76
2021/01/22 01:32:06;;;;;;;1.53;1.10;;;;;;;;;;5036198;28;20822;-76
2021/01/22 01:34:32;;;;;;;2.20;0.70;;;;;;;;;;5036207;28;20506;-77
2021/01/22 01:36:58;;;;;;;1.10;0.70;;;;;;;;;;5036140;28;20174;-74
2021/01/22 01:39:24;;;;;;;3.58;0.93;;;;;;;;;;5036380;28;20891;-77
2021/01/22 01:41:50;;;;;;;2.33;0.90;;;;;;;;;;5036406;28;20253;-75
2021/01/22 01:44:15;;;;;;;1.10;0.60;;;;;;;;;;5036177;28;20881;-74
2021/01/22 01:46:41;;;;;;;1.77;0.80;;;;;;;;;;5034524;28;20506;-78
2021/01/22 01:49:08;;;;;;;2.13;0.80;;;;;;;;;;5036134;28;20420;-75
2021/01/22 01:51:34;;;;;;;1.63;0.90;;;;;;;;;;5036007;28;20835;-76
2021/01/22 01:54:00;;;;;;;5.60;1.10;;;;;;;;;;5034778;28;20624;-77
2021/01/22 01:56:26;;;;;;;0.80;0.60;;;;;;;;;;5035720;28;20253;-77
2021/01/22 01:58:52;;;;;;;2.35;0.98;;;;;;;;;;5035560;28;20612;-79
2021/01/22 02:01:18;;;;;;;1.08;0.80;;;;;;;;;;5035942;28;20626;-77
2021/01/22 02:03:44;;;;;;;5.20;0.90;;;;;;;;;;5035904;28;20263;-79
2021/01/22 02:06:10;;;;;;;1.85;0.73;;;;;;;;;;5035913;28;20204;-76
2021/01/22 02:08:37;;;;;;;2.50;0.90;;;;;;;;;;5035269;28;20202;-78
2021/01/22 02:11:04;;;;;;;2.47;0.95;;;;;;;;;;5035602;28;20467;-78
2021/01/22 02:13:31;;;;;;;0.93;0.82;;;;;;;;;;5034926;28;20212;-78
2021/01/22 02:15:57;;;;;;;2.55;1.05;;;;;;;;;;5035503;28;20171;-77
2021/01/22 02:18:24;;;;;;;1.30;1.00;;;;;;;;;;5033848;28;20190;-77
2021/01/22 02:21:03;;;;;;;1.15;0.80;;;;;;;;;;5034182;28;20191;-79
2021/01/22 02:23:29;;;;;;;1.58;0.70;;;;;;;;;;5035429;28;20593;-78
2021/01/22 02:26:06;;;;;;;2.10;0.95;;;;;;;;;;5035353;28;20527;-77
2021/01/22 02:28:32;;;;;;;1.50;1.38;;;;;;;;;;5034844;28;20228;-78
2021/01/22 02:30:58;;;;;;;1.25;1.15;;;;;;;;;;5034597;28;20206;-78
2021/01/22 02:33:24;;;;;;;2.75;1.60;;;;;;;;;;5035487;28;20186;-78
2021/01/22 02:35:53;;;;;;;3.60;3.30;;;;;;;;;;5035442;28;20170;-77
2021/01/22 02:38:21;;;;;;;3.55;3.25;;;;;;;;;;5034837;28;20425;-78
2021/01/22 02:40:48;;;;;;;3.38;3.08;;;;;;;;;;5034893;28;20182;-78
2021/01/22 02:43:14;;;;;;;5.07;3.80;;;;;;;;;;5033811;28;20218;-77
2021/01/22 02:45:40;;;;;;;3.10;2.67;;;;;;;;;;5035010;28;20181;-77
2021/01/22 02:48:07;;;;;;;5.10;4.53;;;;;;;;;;5034828;28;20537;-79
2021/01/22 02:50:34;;;;;;;4.70;4.30;;;;;;;;;;5034889;28;20202;-79
2021/01/22 02:53:03;;;;;;;4.80;4.30;;;;;;;;;;5035078;28;20170;-78
2021/01/22 02:55:30;;;;;;;5.70;5.05;;;;;;;;;;5034996;28;20181;-79
2021/01/22 02:58:15;;;;;;;5.10;4.70;;;;;;;;;;5033328;28;20229;-78
2021/01/22 03:00:49;;;;;;;3.75;3.45;;;;;;;;;;5033477;28;20185;-78
2021/01/22 03:03:39;;;;;;;4.75;4.25;;;;;;;;;;5034593;28;20176;-78
2021/01/22 03:06:05;;;;;;;3.58;3.28;;;;;;;;;;5034801;28;20624;-78
2021/01/22 03:08:33;;;;;;;4.07;3.67;;;;;;;;;;5034298;28;20208;-78
2021/01/22 03:11:00;;;;;;;5.30;4.80;;;;;;;;;;5034148;28;20210;-77
2021/01/22 03:13:27;;;;;;;7.65;4.55;;;;;;;;;;5034493;28;20173;-76
2021/01/22 03:15:54;;;;;;;6.47;5.82;;;;;;;;;;5034572;28;20200;-78
2021/01/22 03:18:20;;;;;;;7.20;6.50;;;;;;;;;;5033977;28;20189;-77
2021/01/22 03:20:48;;;;;;;4.28;3.88;;;;;;;;;;5034181;28;20181;-75
2021/01/22 03:23:15;;;;;;;6.85;6.25;;;;;;;;;;5034110;28;20186;-76
2021/01/22 03:25:41;;;;;;;6.70;6.07;;;;;;;;;;5034184;28;20177;-77
2021/01/22 03:28:08;;;;;;;6.80;6.18;;;;;;;;;;5033844;28;20272;-78
2021/01/22 03:30:35;;;;;;;6.95;6.25;;;;;;;;;;5034047;28;20735;-77
2021/01/22 03:33:01;;;;;;;6.25;5.55;;;;;;;;;;5034098;28;20177;-76
2021/01/22 03:35:27;;;;;;;6.85;5.85;;;;;;;;;;5033977;28;20205;-78
2021/01/22 03:37:57;;;;;;;5.95;5.35;;;;;;;;;;5033791;28;20221;-75
2021/01/22 03:40:23;;;;;;;7.13;5.60;;;;;;;;;;5034082;28;20527;-76
2021/01/22 03:42:49;;;;;;;5.35;4.80;;;;;;;;;;5034251;28;20224;-76
2021/01/22 03:45:16;;;;;;;5.10;4.60;;;;;;;;;;5034077;28;20178;-79
2021/01/22 03:47:42;;;;;;;4.75;4.22;;;;;;;;;;5033710;28;20194;-77
2021/01/22 03:50:08;;;;;;;6.10;4.43;;;;;;;;;;5034152;28;20177;-75
2021/01/22 03:52:35;;;;;;;5.93;5.25;;;;;;;;;;5034026;28;20584;-76
2021/01/22 03:55:01;;;;;;;7.30;5.40;;;;;;;;;;5033912;28;20215;-76
2021/01/22 03:57:26;;;;;;;6.35;5.75;;;;;;;;;;5032087;28;20608;-77
2021/01/22 03:59:52;;;;;;;6.50;5.57;;;;;;;;;;5034028;28;20285;-77
2021/01/22 04:02:20;;;;;;;6.07;5.00;;;;;;;;;;5033759;28;20751;-76
2021/01/22 04:04:46;;;;;;;11.18;5.10;;;;;;;;;;5033690;28;20415;-77
2021/01/22 04:07:12;;;;;;;7.20;5.70;;;;;;;;;;5033190;28;20252;-77
2021/01/22 04:09:38;;;;;;;5.85;5.25;;;;;;;;;;5033490;28;20185;-76
2021/01/22 04:12:05;;;;;;;5.15;4.63;;;;;;;;;;5033511;28;20232;-78
2021/01/22 04:14:30;;;;;;;5.82;4.40;;;;;;;;;;5033496;28;20181;-78
2021/01/22 04:16:57;;;;;;;4.23;3.60;;;;;;;;;;5033189;28;20181;-76
2021/01/22 04:19:24;;;;;;;4.28;3.50;;;;;;;;;;5033325;28;20415;-76
2021/01/22 04:21:50;;;;;;;4.55;3.85;;;;;;;;;;5033289;28;20549;-78
2021/01/22 04:24:16;;;;;;;3.37;2.73;;;;;;;;;;5033335;28;20176;-78
2021/01/22 04:26:42;;;;;;;4.10;3.40;;;;;;;;;;5032956;28;20449;-78
2021/01/22 04:29:08;;;;;;;6.90;3.05;;;;;;;;;;5033268;28;20412;-76
2021/01/22 04:31:34;;;;;;;4.40;3.80;;;;;;;;;;5033112;28;20205;-77
2021/01/22 04:34:00;;;;;;;7.20;4.53;;;;;;;;;;5033608;28;20180;-76
2021/01/22 04:36:26;;;;;;;5.07;4.23;;;;;;;;;;5033970;28;20563;-78
2021/01/22 04:38:52;;;;;;;4.63;4.05;;;;;;;;;;5039715;28;20582;-78
2021/01/22 04:41:18;;;;;;;3.70;3.40;;;;;;;;;;5039985;28;20264;-76
2021/01/22 04:43:44;;;;;;;3.90;3.50;;;;;;;;;;5039819;28;20517;-76
2021/01/22 04:46:11;;;;;;;7.70;4.72;;;;;;;;;;5039839;28;20224;-79
2021/01/22 04:48:38;;;;;;;6.47;4.72;;;;;;;;;;5039321;28;20207;-78
2021/01/22 04:51:04;;;;;;;7.05;4.85;;;;;;;;;;5039628;28;20213;-77
2021/01/22 04:53:31;;;;;;;7.93;5.22;;;;;;;;;;5039645;28;20177;-77
2021/01/22 04:55:57;;;;;;;4.95;4.20;;;;;;;;;;5039666;28;20178;-79
2021/01/22 04:58:24;;;;;;;6.60;5.90;;;;;;;;;;5039311;28;20443;-76
2021/01/22 05:00:50;;;;;;;6.15;5.22;;;;;;;;;;5039856;28;20212;-76
2021/01/22 05:03:18;;;;;;;6.88;5.70;;;;;;;;;;5039681;28;20235;-76
2021/01/22 05:05:45;;;;;;;9.15;6.20;;;;;;;;;;5039666;28;20210;-78
2021/01/22 05:08:11;;;;;;;9.10;6.25;;;;;;;;;;5033118;28;20296;-79
2021/01/22 05:10:37;;;;;;;6.88;5.85;;;;;;;;;;5018303;28;20210;-77
2021/01/22 05:13:03;;;;;;;8.40;6.03;;;;;;;;;;5019784;28;20200;-78
2021/01/22 05:15:29;;;;;;;11.40;6.28;;;;;;;;;;5019644;28;20486;-78
2021/01/22 05:17:56;;;;;;;6.00;5.07;;;;;;;;;;5019096;28;20195;-78
2021/01/22 05:20:37;;;;;;;9.32;6.88;;;;;;;;;;5019341;28;20170;-77
2021/01/22 05:23:04;;;;;;;6.15;5.53;;;;;;;;;;5019656;28;20167;-77
2021/01/22 05:25:30;;;;;;;7.75;6.50;;;;;;;;;;5019538;28;20182;-77
2021/01/22 05:27:57;;;;;;;12.05;7.30;;;;;;;;;;5018952;28;20219;-79
2021/01/22 05:30:24;;;;;;;9.68;6.63;;;;;;;;;;5019477;28;20320;-76
2021/01/22 05:32:50;;;;;;;16.08;7.35;;;;;;;;;;5019368;28;20175;-78
2021/01/22 05:35:31;;;;;;;10.15;7.28;;;;;;;;;;5019370;28;20618;-76
2021/01/22 05:37:58;;;;;;;8.50;6.45;;;;;;;;;;5019121;28;20532;-78
2021/01/22 05:40:24;;;;;;;8.27;6.40;;;;;;;;;;5018126;28;20186;-78
2021/01/22 05:42:54;;;;;;;8.13;6.20;;;;;;;;;;5019365;28;20170;-78
2021/01/22 05:45:41;;;;;;;8.50;6.82;;;;;;;;;;5019367;28;20174;-77
2021/01/22 05:48:28;;;;;;;9.27;6.72;;;;;;;;;;5017731;28;20199;-77
2021/01/22 05:50:56;;;;;;;7.93;6.15;;;;;;;;;;5016030;28;20229;-76
2021/01/22 05:53:22;;;;;;;6.82;5.85;;;;;;;;;;5016245;28;20316;-76
2021/01/22 05:56:03;;;;;;;7.28;6.40;;;;;;;;;;5016361;28;20182;-76
2021/01/22 05:58:29;;;;;;;8.73;6.63;;;;;;;;;;5015818;28;20195;-77
2021/01/22 06:01:12;;;;;;;7.85;5.95;;;;;;;;;;5016190;28;20179;-76
2021/01/22 06:03:39;;;;;;;10.43;6.22;;;;;;;;;;5016084;28;20626;-77
2021/01/22 06:06:06;;;;;;;9.07;6.28;;;;;;;;;;5016041;28;20178;-78
2021/01/22 06:08:32;;;;;;;6.72;5.78;;;;;;;;;;5015438;28;20214;-77
2021/01/22 06:11:00;;;;;;;10.40;6.63;;;;;;;;;;5016003;28;20210;-78
2021/01/22 06:13:27;;;;;;;12.38;6.70;;;;;;;;;;5016004;28;20167;-76
2021/01/22 06:15:57;;;;;;;7.05;6.25;;;;;;;;;;5014598;28;20638;-76
2021/01/22 06:18:28;;;;;;;10.40;6.72;;;;;;;;;;5015245;28;20221;-78
2021/01/22 06:20:59;;;;;;;8.40;6.43;;;;;;;;;;5015806;28;20589;-79
2021/01/22 06:23:25;;;;;;;9.00;6.90;;;;;;;;;;5015721;28;20190;-78
2021/01/22 06:25:51;;;;;;;7.93;6.65;;;;;;;;;;5015640;28;20572;-79
2021/01/22 06:28:19;;;;;;;8.02;7.05;;;;;;;;;;5015046;28;20263;-79
2021/01/22 06:30:47;;;;;;;7.85;6.30;;;;;;;;;;5016077;28;20257;-79
2021/01/22 06:33:13;;;;;;;8.40;7.00;;;;;;;;;;5015540;28;20511;-77
2021/01/22 06:35:39;;;;;;;10.45;6.68;;;;;;;;;;5015478;28;20233;-77
2021/01/22 06:38:06;;;;;;;8.33;6.87;;;;;;;;;;5014985;28;20200;-79
2021/01/22 06:40:32;;;;;;;7.75;5.60;;;;;;;;;;5015306;28;20402;-78
2021/01/22 06:42:58;;;;;;;9.20;5.70;;;;;;;;;;5015301;28;20201;-76
2021/01/22 06:45:25;;;;;;;7.30;5.10;;;;;;;;;;5015293;28;20400;-76
2021/01/22 06:47:56;;;;;;;8.45;5.55;;;;;;;;;;5014983;28;20437;-77
2021/01/22 06:50:23;;;;;;;5.68;4.88;;;;;;;;;;5015195;28;20510;-76
2021/01/22 06:53:03;;;;;;;5.97;3.95;;;;;;;;;;5015058;28;20248;-75
2021/01/22 06:55:29;;;;;;;5.00;4.30;;;;;;;;;;5015142;28;20189;-76
2021/01/22 06:58:13;;;;;;;4.57;3.60;;;;;;;;;;5014616;28;20199;-77
2021/01/22 07:00:39;;;;;;;5.28;4.68;;;;;;;;;;5019704;28;20462;-77
2021/01/22 07:03:05;;;;;;;5.00;3.93;;;;;;;;;;5034864;28;20697;-76
2021/01/22 07:05:35;;;;;;;4.87;3.70;;;;;;;;;;5035026;28;20417;-77
2021/01/22 07:08:01;;;;;;;4.38;3.28;;;;;;;;;;5034471;28;20440;-76
2021/01/22 07:10:46;;;;;;;4.73;4.33;;;;;;;;;;5034471;28;20196;-77
2021/01/22 07:13:42;;;;;;;3.70;3.22;;;;;;;;;;5034502;28;20488;-76
2021/01/22 07:16:09;;;;;;;3.75;3.20;;;;;;;;;;5030280;28;20186;-76
2021/01/22 07:18:56;;;;;;;3.25;2.50;;;;;;;;;;5034061;28;20186;-77
2021/01/22 07:21:28;;;;;;;2.97;2.72;;;;;;;;;;5034324;28;20178;-77
2021/01/22 07:23:56;;;;;;;3.95;2.15;;;;;;;;;;5034400;28;20186;-79
2021/01/22 07:26:24;;;;;;;3.90;2.60;;;;;;;;;;5034271;28;20171;-78
2021/01/22 07:28:50;;;;;;;3.08;2.78;;;;;;;;;;5032344;28;20715;-75
2021/01/22 07:31:57;;;;;;;2.85;2.28;;;;;;;;;;5014277;28;20776;-77
2021/01/22 07:34:39;;;;;;;5.18;2.25;;;;;;;;;;4953920;29;20195;-76
2021/01/22 07:37:05;;;;;;;2.50;1.80;;;;;;;;;;4953360;29;20197;-76
2021/01/22 07:39:31;;;;;;;3.30;2.15;;;;;;;;;;4997327;28;20228;-78
2021/01/22 07:42:07;;;;;;;4.97;2.03;;;;;;;;;;5034086;28;20182;-78
2021/01/22 07:44:33;;;;;;;2.00;1.70;;;;;;;;;;5033983;28;20211;-77
2021/01/22 07:46:59;;;;;;;2.05;1.85;;;;;;;;;;5033049;28;20236;-78
2021/01/22 07:49:26;;;;;;;1.50;1.40;;;;;;;;;;5032322;28;20185;-76
2021/01/22 07:51:51;;;;;;;5.47;2.17;;;;;;;;;;5033579;28;20208;-76
2021/01/22 07:54:18;;;;;;;2.45;1.50;;;;;;;;;;5034035;28;20178;-76
2021/01/22 07:56:44;;;;;;;1.70;1.60;;;;;;;;;;5033702;28;20173;-77
2021/01/22 07:59:13;;;;;;;2.92;1.70;;;;;;;;;;5033624;28;20213;-76
2021/01/22 08:01:39;;;;;;;3.00;1.70;;;;;;;;;;5033884;28;20257;-75
2021/01/22 08:04:06;;;;;;;3.05;1.48;;;;;;;;;;5033476;28;20186;-77
2021/01/22 08:06:48;;;;;;;1.98;1.40;;;;;;;;;;5033538;28;20204;-74
2021/01/22 08:09:14;;;;;;;2.00;1.50;;;;;;;;;;5033428;28;20257;-77
2021/01/22 08:11:40;;;;;;;2.70;1.85;;;;;;;;;;5032638;28;20206;-75
2021/01/22 08:14:07;;;;;;;2.35;1.27;;;;;;;;;;5027259;28;20187;-75
2021/01/22 08:16:33;;;;;;;3.50;1.45;;;;;;;;;;5021980;28;20233;-75
2021/01/22 08:18:59;;;;;;;2.00;1.20;;;;;;;;;;5022990;28;20194;-76
2021/01/22 08:21:30;;;;;;;2.25;1.58;;;;;;;;;;5026465;28;20304;-75
2021/01/22 08:23:59;;;;;;;1.40;1.30;;;;;;;;;;5033511;28;20178;-75
2021/01/22 08:26:26;;;;;;;2.88;1.60;;;;;;;;;;5024985;28;20543;-75
2021/01/22 08:28:54;;;;;;;3.72;1.42;;;;;;;;;;5023627;28;20186;-76
2021/01/22 08:31:21;;;;;;;1.75;1.40;;;;;;;;;;5022989;28;20279;-76
2021/01/22 08:33:47;;;;;;;2.88;1.40;;;;;;;;;;5021763;28;20186;-75
2021/01/22 08:36:14;;;;;;;2.20;1.55;;;;;;;;;;5023823;28;20172;-76
2021/01/22 08:38:40;;;;;;;3.33;1.67;;;;;;;;;;5021281;28;20278;-77
2021/01/22 08:41:06;;;;;;;3.15;1.20;;;;;;;;;;5016983;28;20241;-76
2021/01/22 08:43:48;;;;;;;2.33;1.30;;;;;;;;;;5018490;28;20232;-76
2021/01/22 08:46:14;;;;;;;2.00;1.15;;;;;;;;;;5023751;28;20428;-77
2021/01/22 08:48:40;;;;;;;1.60;1.25;;;;;;;;;;5025484;28;20205;-75
2021/01/22 08:51:06;;;;;;;1.23;1.10;;;;;;;;;;5021633;28;20187;-76
2021/01/22 08:53:33;;;;;;;2.10;1.00;;;;;;;;;;5022730;28;20681;-77
2021/01/22 08:56:11;;;;;;;4.40;1.52;;;;;;;;;;5023569;28;20186;-76
2021/01/22 08:58:56;;;;;;;6.88;1.23;;;;;;;;;;5022775;28;20247;-76
2021/01/22 09:01:22;;;;;;;1.15;1.05;;;;;;;;;;5023610;28;20216;-77
2021/01/22 09:03:48;;;;;;;1.55;1.20;;;;;;;;;;5020532;28;20325;-74
2021/01/22 09:06:14;;;;;;;2.15;1.45;;;;;;;;;;5022544;28;20205;-76
2021/01/22 09:08:54;;;;;;;1.20;1.10;;;;;;;;;;5023089;28;20667;-75
2021/01/22 09:11:36;;;;;;;1.42;1.20;;;;;;;;;;5038580;28;20600;-76
2021/01/22 09:14:02;;;;;;;1.55;1.40;;;;;;;;;;5020921;28;20671;-77
2021/01/22 09:16:28;;;;;;;1.70;1.17;;;;;;;;;;5020538;28;20191;-80
2021/01/22 09:19:00;;;;;;;3.30;1.60;;;;;;;;;;5020098;28;20815;-77
2021/01/22 09:21:27;;;;;;;1.40;1.30;;;;;;;;;;5021586;28;20772;-79
2021/01/22 09:23:53;;;;;;;1.75;1.60;;;;;;;;;;5022763;28;20667;-79
2021/01/22 09:26:19;;;;;;;1.75;1.30;;;;;;;;;;5024065;28;20175;-78
2021/01/22 09:28:46;;;;;;;3.63;1.85;;;;;;;;;;5013941;28;20209;-76
2021/01/22 09:31:12;;;;;;;1.80;1.20;;;;;;;;;;5015323;28;20186;-78
2021/01/22 09:33:38;;;;;;;1.67;1.23;;;;;;;;;;5014665;28;20195;-78
2021/01/22 09:36:04;;;;;;;2.75;1.30;;;;;;;;;;5014371;28;20201;-76
2021/01/22 09:38:30;;;;;;;4.55;1.58;;;;;;;;;;5038308;28;20569;-78
2021/01/22 09:40:56;;;;;;;1.30;1.10;;;;;;;;;;5025957;28;20194;-78
2021/01/22 09:43:22;;;;;;;1.90;1.80;;;;;;;;;;5022495;28;20607;-78
2021/01/22 09:45:48;;;;;;;2.80;1.42;;;;;;;;;;5025233;28;20420;-77
2021/01/22 09:48:16;;;;;;;2.05;1.63;;;;;;;;;;5022157;28;20540;-76
2021/01/22 09:50:42;;;;;;;2.22;1.63;;;;;;;;;;5022599;28;20308;-78
2021/01/22 09:53:08;;;;;;;2.70;1.80;;;;;;;;;;5024749;28;20179;-75
2021/01/22 09:55:35;;;;;;;2.63;1.45;;;;;;;;;;5024224;28;20180;-77
2021/01/22 09:58:01;;;;;;;5.82;1.55;;;;;;;;;;5021932;28;20296;-76
2021/01/22 10:00:27;;;;;;;3.20;1.73;;;;;;;;;;5025307;28;20251;-77
2021/01/22 10:02:53;;;;;;;3.38;1.80;;;;;;;;;;5023340;28;20418;-77
2021/01/22 10:05:19;;;;;;;3.40;2.80;;;;;;;;;;5022719;28;20167;-74
2021/01/22 10:07:45;;;;;;;4.10;2.43;;;;;;;;;;5024301;28;20205;-77
2021/01/22 10:10:11;;;;;;;3.40;2.60;;;;;;;;;;5023250;28;20527;-77
2021/01/22 10:12:37;;;;;;;2.83;2.20;;;;;;;;;;5022208;28;20333;-75
2021/01/22 10:15:04;;;;;;;3.93;3.10;;;;;;;;;;5023769;28;20270;-75
2021/01/22 10:17:30;;;;;;;3.55;2.70;;;;;;;;;;5021928;28;20441;-76
2021/01/22 10:19:56;;;;;;;3.13;2.22;;;;;;;;;;5023631;28;20555;-76
2021/01/22 10:22:22;;;;;;;6.03;2.10;;;;;;;;;;5023965;28;20182;-74
2021/01/22 10:24:48;;;;;;;1.90;1.58;;;;;;;;;;5025335;28;20467;-76
2021/01/22 10:27:14;;;;;;;3.67;2.23;;;;;;;;;;5017196;28;20208;-76
2021/01/22 10:29:40;;;;;;;4.47;2.20;;;;;;;;;;5013269;28;20421;-77
2021/01/22 10:32:06;;;;;;;7.03;2.60;;;;;;;;;;5023442;28;20466;-74
2021/01/22 10:34:32;;;;;;;3.83;2.10;;;;;;;;;;5022580;28;20183;-73
2021/01/22 10:36:58;;;;;;;7.70;2.80;;;;;;;;;;5021863;28;20449;-73
2021/01/22 10:39:24;;;;;;;5.00;2.13;;;;;;;;;;5022692;28;20828;-75
2021/01/22 10:41:50;;;;;;;6.17;2.60;;;;;;;;;;5021719;28;20427;-73
2021/01/22 10:44:16;;;;;;;4.57;2.70;;;;;;;;;;5023765;28;20450;-74
2021/01/22 10:46:43;;;;;;;9.10;3.13;;;;;;;;;;5031230;28;20448;-74
2021/01/22 10:49:09;;;;;;;1.23;0.80;;;;;;;;;;5032394;28;20463;-75
2021/01/22 10:51:35;;;;;;;7.65;2.60;;;;;;;;;;5033266;28;20229;-75
2021/01/22 10:54:01;;;;;;;6.10;2.50;;;;;;;;;;5024748;28;20257;-75
2021/01/22 10:56:27;;;;;;;7.25;3.03;;;;;;;;;;5021746;28;20420;-73
2021/01/22 10:58:53;;;;;;;2.83;1.75;;;;;;;;;;5023221;28;20577;-75
2021/01/22 11:01:19;;;;;;;2.83;2.20;;;;;;;;;;5022359;28;20186;-74
2021/01/22 11:03:45;;;;;;;4.45;2.47;;;;;;;;;;5021504;28;20219;-74
2021/01/22 11:06:11;;;;;;;9.70;2.28;;;;;;;;;;5023848;28;20184;-76
2021/01/22 11:08:37;;;;;;;2.60;2.03;;;;;;;;;;5021094;28;20220;-76
2021/01/22 11:11:03;;;;;;;6.10;2.77;;;;;;;;;;5024287;28;20474;-76
2021/01/22 11:13:29;;;;;;;4.95;2.55;;;;;;;;;;5026466;28;20418;-76
2021/01/22 11:15:55;;;;;;;3.42;2.13;;;;;;;;;;5024121;28;20216;-75
2021/01/22 11:18:21;;;;;;;4.40;2.03;;;;;;;;;;5023414;28;20218;-76
2021/01/22 11:20:47;;;;;;;7.10;2.17;;;;;;;;;;5022076;28;20454;-74
2021/01/22 11:23:13;;;;;;;3.87;2.30;;;;;;;;;;5023206;28;20264;-74
2021/01/22 11:25:39;;;;;;;3.50;2.00;;;;;;;;;;5021334;28;20432;-76
2021/01/22 11:28:05;;;;;;;2.67;2.10;;;;;;;;;;5021527;28;20443;-75
2021/01/22 11:30:31;;;;;;;3.35;3.05;;;;;;;;;;5023235;28;20480;-73
2021/01/22 11:32:58;;;;;;;3.00;2.13;;;;;;;;;;5020478;28;20193;-76
2021/01/22 11:35:24;;;;;;;4.15;2.00;;;;;;;;;;5023960;28;20170;-74
2021/01/22 11:37:51;;;;;;;3.25;2.03;;;;;;;;;;5020888;28;20533;-76
2021/01/22 11:40:17;;;;;;;12.63;2.90;;;;;;;;;;5022555;28;20218;-73
2021/01/22 11:42:44;;;;;;;2.70;2.17;;;;;;;;;;5020875;28;20607;-75
2021/01/22 11:45:10;;;;;;;7.05;2.58;;;;;;;;;;5022626;28;20769;-74
2021/01/22 11:47:38;;;;;;;4.93;1.83;;;;;;;;;;5020177;28;20195;-73
2021/01/22 11:50:04;;;;;;;4.35;2.10;;;;;;;;;;5020714;28;20192;-75
2021/01/22 11:52:30;;;;;;;4.38;2.20;;;;;;;;;;5021037;28;20257;-76
2021/01/22 11:54:56;;;;;;;3.15;2.67;;;;;;;;;;5020733;28;20182;-76
2021/01/22 11:57:22;;;;;;;4.13;1.97;;;;;;;;;;5022420;28;20229;-75
2021/01/22 11:59:49;;;;;;;2.60;1.70;;;;;;;;;;5017173;28;20786;-75
2021/01/22 12:02:15;;;;;;;4.32;2.15;;;;;;;;;;5011948;28;20504;-74
2021/01/22 12:04:41;;;;;;;5.57;2.40;;;;;;;;;;5017863;28;20265;-73
2021/01/22 12:07:07;;;;;;;3.50;2.03;;;;;;;;;;5021088;28;20793;-76
2021/01/22 12:09:33;;;;;;;2.80;2.45;;;;;;;;;;5022444;28;20431;-76
2021/01/22 12:11:59;;;;;;;2.35;2.10;;;;;;;;;;5019480;28;20558;-74
2021/01/22 12:14:25;;;;;;;10.43;2.33;;;;;;;;;;5020841;28;20252;-75
2021/01/22 12:16:51;;;;;;;2.85;2.28;;;;;;;;;;5015836;28;20201;-75
2021/01/22 12:19:18;;;;;;;3.07;2.30;;;;;;;;;;5019461;28;20182;-74
2021/01/22 12:21:45;;;;;;;3.30;2.13;;;;;;;;;;5026445;28;20976;-76
2021/01/22 12:24:11;;;;;;;4.50;2.15;;;;;;;;;;5029260;28;20289;-73
2021/01/22 12:26:38;;;;;;;2.70;1.98;;;;;;;;;;5030514;28;20561;-73
2021/01/22 12:29:04;;;;;;;6.35;2.70;;;;;;;;;;5030959;28;20267;-76
2021/01/22 12:31:30;;;;;;;4.13;2.33;;;;;;;;;;5031629;28;20621;-75
2021/01/22 12:33:56;;;;;;;3.00;1.80;;;;;;;;;;5030634;28;20189;-76
2021/01/22 12:36:22;;;;;;;3.70;2.00;;;;;;;;;;5028285;28;20429;-74
2021/01/22 12:38:48;;;;;;;3.45;2.70;;;;;;;;;;5030873;28;20527;-76
2021/01/22 12:41:14;;;;;;;5.70;2.38;;;;;;;;;;5030379;28;20321;-75
2021/01/22 12:43:40;;;;;;;3.92;2.05;;;;;;;;;;5031148;28;20681;-74
2021/01/22 12:46:07;;;;;;;9.15;2.13;;;;;;;;;;5031166;28;20212;-75
2021/01/22 12:48:33;;;;;;;2.95;2.35;;;;;;;;;;5030127;28;20769;-74
2021/01/22 12:50:59;;;;;;;5.90;2.47;;;;;;;;;;5031417;28;20272;-74
2021/01/22 12:53:25;;;;;;;2.23;2.00;;;;;;;;;;5031346;28;20420;-75
2021/01/22 12:55:51;;;;;;;3.42;2.03;;;;;;;;;;5030475;28;20897;-75
2021/01/22 12:58:17;;;;;;;4.68;2.10;;;;;;;;;;5032410;28;20186;-76
2021/01/22 13:00:43;;;;;;;4.03;2.38;;;;;;;;;;5036040;28;20699;-76
2021/01/22 13:03:10;;;;;;;6.30;2.20;;;;;;;;;;5037073;28;20166;-76
2021/01/22 13:05:36;;;;;;;3.45;2.45;;;;;;;;;;5036807;28;20412;-74
2021/01/22 13:08:02;;;;;;;3.70;2.20;;;;;;;;;;5036632;28;20193;-75
2021/01/22 13:10:28;;;;;;;2.55;2.00;;;;;;;;;;5036643;28;20467;-75
2021/01/22 13:12:54;;;;;;;3.30;2.20;;;;;;;;;;5036775;28;20316;-77
2021/01/22 13:15:19;;;;;;;5.43;2.40;;;;;;;;;;5019040;28;20413;-78
2021/01/22 13:17:45;;;;;;;6.20;2.30;;;;;;;;;;5016243;28;20429;-78
2021/01/22 13:20:12;;;;;;;3.72;2.05;;;;;;;;;;5016646;28;20414;-77
2021/01/22 13:22:38;;;;;;;3.28;2.42;;;;;;;;;;5016818;28;20171;-76
2021/01/22 13:25:04;;;;;;;5.55;2.10;;;;;;;;;;5016836;28;20635;-75
2021/01/22 13:27:31;;;;;;;3.95;2.03;;;;;;;;;;5016293;28;20206;-75
2021/01/22 13:29:57;;;;;;;2.42;2.22;;;;;;;;;;5016558;28;20175;-75
2021/01/22 13:32:23;;;;;;;5.68;3.25;;;;;;;;;;5016638;28;20211;-78
2021/01/22 13:34:49;;;;;;;3.10;2.58;;;;;;;;;;5020503;28;20189;-75
2021/01/22 13:37:15;;;;;;;6.00;2.15;;;;;;;;;;5032108;28;20205;-76
2021/01/22 13:39:42;;;;;;;4.55;2.00;;;;;;;;;;5035099;28;20176;-75
2021/01/22 13:42:08;;;;;;;3.20;2.30;;;;;;;;;;5027481;28;20173;-75
2021/01/22 13:44:33;;;;;;;5.93;2.35;;;;;;;;;;5027103;28;20257;-74
2021/01/22 13:47:00;;;;;;;3.30;2.33;;;;;;;;;;5031943;28;20741;-75
2021/01/22 13:49:26;;;;;;;4.85;2.75;;;;;;;;;;5025142;28;20414;-75
2021/01/22 13:51:52;;;;;;;3.63;2.47;;;;;;;;;;5025392;28;20292;-74
2021/01/22 13:54:17;;;;;;;2.23;1.80;;;;;;;;;;5026603;28;20677;-75
2021/01/22 13:56:43;;;;;;;5.83;2.03;;;;;;;;;;5024262;28;20406;-74
2021/01/22 13:59:09;;;;;;;3.53;2.07;;;;;;;;;;5024437;28;20405;-73
2021/01/22 14:01:36;;;;;;;3.72;1.85;;;;;;;;;;5026065;28;20436;-73
2021/01/22 14:04:02;;;;;;;4.18;1.92;;;;;;;;;;5023027;28;20189;-73
2021/01/22 14:06:28;;;;;;;7.73;1.67;;;;;;;;;;5025857;28;20174;-74
2021/01/22 14:08:55;;;;;;;4.18;1.77;;;;;;;;;;5025200;28;20448;-73
2021/01/22 14:11:21;;;;;;;9.13;1.98;;;;;;;;;;5023096;28;20215;-73
2021/01/22 14:13:47;;;;;;;5.22;2.40;;;;;;;;;;5024395;28;20185;-74
2021/01/22 14:16:13;;;;;;;3.55;1.50;;;;;;;;;;5025795;28;20173;-75
2021/01/22 14:18:39;;;;;;;1.67;1.50;;;;;;;;;;5024939;28;20663;-76
2021/01/22 14:21:05;;;;;;;2.10;1.55;;;;;;;;;;5024258;28;20416;-75
2021/01/22 14:23:31;;;;;;;2.33;1.50;;;;;;;;;;5026083;28;20238;-76
2021/01/22 14:25:57;;;;;;;3.85;1.60;;;;;;;;;;5026153;28;20212;-76
2021/01/22 14:28:23;;;;;;;2.60;1.60;;;;;;;;;;5025317;28;20663;-76
2021/01/22 14:30:49;;;;;;;3.43;1.43;;;;;;;;;;5023851;28;20410;-75
2021/01/22 14:33:15;;;;;;;6.40;2.30;;;;;;;;;;5025346;28;20405;-75
2021/01/22 14:35:41;;;;;;;6.10;1.33;;;;;;;;;;5025271;28;20178;-76
2021/01/22 14:38:07;;;;;;;6.13;1.45;;;;;;;;;;5023150;28;20429;-77
2021/01/22 14:40:33;;;;;;;7.07;1.50;;;;;;;;;;5025483;28;20201;-75
2021/01/22 14:42:59;;;;;;;2.97;2.55;;;;;;;;;;5024857;28;20452;-75
2021/01/22 14:45:25;;;;;;;3.30;1.50;;;;;;;;;;5023689;28;20177;-76